ADDS METAR Data INFO
IDs: Format: Raw Decoded Include TAF

Data at: 1023 UTC 12 Dec 2017

PAOH 121001Z AUTO 07003KT 3SM BR SCT009 OVC045 03/03 A3000 RMK AO2
PAOH 120956Z AUTO 11003KT 1 1/4SM BR SCT009 OVC045 03/03 A3000 RMK AO2 SLP161 T00330033
PAOH 120946Z AUTO 00000KT 1 3/4SM BR BKN009 BKN014 OVC045 03/03 A3000 RMK AO2 VIS 3/4V5 CIG 005V012
PAOH 120856Z AUTO 00000KT 10SM BKN007 04/04 A2999 RMK AO2 SLP156 60001 T00390039 53023
PAOH 120833Z AUTO 00000KT 9SM BKN007 04/03 A2998 RMK AO2 CIG 005V009
PAOH 120818Z AUTO 26003KT 10SM FEW007 BKN014 04/04 A2997 RMK AO2
PAOH 120756Z AUTO 00000KT 10SM OVC014 04/04 A2996 RMK AO2 SLP145 T00440044 400890039
PAOH 120723Z AUTO 11004KT 10SM OVC014 04/04 A2994 RMK AO2
PAOH 120704Z AUTO 10003KT 10SM SCT005 OVC016 04/04 A2994 RMK AO2
PAOH 120656Z AUTO 00000KT 4SM BR BKN005 OVC018 04/04 A2994 RMK AO2 RAE39 SLP139 P0001 T00440044
PAOH 120556Z AUTO 00000KT 8SM -RA BKN005 OVC008 04/04 A2992 RMK AO2 SLP134 P0002 60010 T00440044 10050 20044 56010
PAOH 120548Z AUTO 15003KT 6SM -RA BR BKN005 OVC008 04/04 A2993 RMK AO2 P0002
PAOH 120456Z AUTO 00000KT 4SM -RA BR OVC006 04/04 A2993 RMK AO2 SLP135 P0001 T00440044
PAOH 120356Z AUTO 00000KT 9SM -RA OVC006 05/04 A2993 RMK AO2 CIG 005V010 SLP135 P0002 T00500044
PAOH 120307Z AUTO 00000KT 10SM -RA OVC008 05/04 A2995 RMK AO2 CIG 004V013 P0000
PAOH 120256Z AUTO 34003KT 10SM -RA SCT008 BKN012 OVC028 05/04 A2995 RMK AO2 SLP144 P0004 60005 T00500044 58011
PAOH 120242Z AUTO 10004KT 10SM -RA SCT008 BKN012 OVC028 05/04 A2995 RMK AO2 P0003
PAOH 120231Z AUTO 09005KT 10SM -RA FEW008 BKN026 OVC032 05/04 A2996 RMK AO2 P0003
PAOH 120220Z AUTO 08005KT 10SM -RA BKN008 BKN014 OVC031 05/04 A2996 RMK AO2 CIG 007V010 P0002
PAOH 120156Z AUTO 07006KT 10SM -RA FEW012 BKN050 OVC060 05/04 A2996 RMK AO2 RAB0057 SLP147 P0001 T00500044
PAOH 120146Z AUTO 08007KT 10SM -RA FEW014 SCT043 OVC050 05/04 A2996 RMK AO2 RAB0057 P0000
PAOH 120111Z AUTO 08006KT 10SM -RA SCT003 OVC020 04/04 A2998 RMK AO2 RAB0057 P0000
PAOH 120103Z AUTO 08004KT 7SM -RA BKN003 OVC020 04/04 A2998 RMK AO2 RAB0057 P0000
PAOH 120056Z AUTO 08004KT 2 1/2SM BR BKN003 OVC022 04/04 A2998 RMK AO2 VIS 1 3/4V5 SLP154 T00440044
PAOH 120038Z AUTO 07006KT 6SM BR BKN003 OVC027 04/04 A2999 RMK AO2
PAOH 120013Z AUTO 09005KT 4SM BR OVC005 04/04 A3001 RMK AO2
PAOH 112356Z AUTO 06004KT 3SM BR BKN003 BKN028 OVC049 04/04 A3002 RMK AO2 RAE42 CIG 002V006 SLP165 P0000 60001 T00440044 10056 20039 58005
PAOH 112352Z AUTO 07005KT 3SM BR BKN003 BKN025 OVC049 04/04 A3002 RMK AO2 RAE42 CIG 002V006 P0000
PAOH 112304Z AUTO 09005KT 3SM -RA BR SCT005 BKN035 OVC045 05/04 A3003 RMK AO2 P0000
PAOH 112256Z AUTO 00000KT 2 1/2SM -RA BR BKN005 BKN010 OVC040 05/04 A3003 RMK AO2 RAB45 SLP169 P0000 T00500044
PAOH 112254Z AUTO 00000KT 2 1/2SM -RA BR BKN005 BKN010 OVC040 05/04 A3003 RMK AO2 RAB45 P0000
PAOH 112245Z AUTO 00000KT 2SM -RA BR BKN007 BKN040 OVC048 05/04 A3003 RMK AO2 RAB45 CIG 002V010 P0000
PAOH 112156Z AUTO 00000KT 10SM FEW004 BKN050 OVC060 05/05 A3003 RMK AO2 SLP170 T00500050
PAOH 112152Z AUTO 00000KT 10SM FEW004 BKN049 OVC060 05/05 A3003 RMK AO2
PAOH 112056Z AUTO 00000KT 10SM FEW043 OVC065 04/04 A3003 RMK AO2 RAE00 SLP170 P0000 60001 T00440044 50003
PAOH 112005Z AUTO 00000KT 10SM FEW014 SCT047 OVC070 04/04 A3004 RMK AO2 RAE00 P0000
PAOH 111956Z AUTO 00000KT 2SM -RA BR SCT011 SCT049 OVC070 04/04 A3003 RMK AO2 SLP172 P0000 T00440044
PAOH 111945Z AUTO 00000KT 1 3/4SM -RA BR FEW011 BKN050 OVC070 04/04 A3003 RMK AO2 VIS 3/4V5 P0000
PAOH 111927Z AUTO 00000KT 1 3/4SM -RA BR FEW017 BKN034 OVC065 04/04 A3003 RMK AO2 P0000
PAOH 111919Z AUTO 00000KT 9SM -RA SCT019 BKN034 OVC060 04/04 A3003 RMK AO2 P0000
PAOH 111856Z AUTO 00000KT 10SM -RA BKN021 OVC034 04/04 A3002 RMK AO2 SLP168 P0001 T00440044
PAOH 111756Z AUTO 00000KT 10SM -RA FEW041 BKN049 OVC080 04/04 A3000 RMK AO2 SLP160 P0003 60032 T00440044 10078 20044 51030
PAOH 111656Z AUTO 00000KT 10SM -RA OVC042 04/04 A2998 RMK AO2 SLP152 P0002 T00440044
PAOH 111556Z AUTO 00000KT 10SM -RA FEW025 SCT033 OVC044 05/04 A2995 RMK AO2 SLP144 P0004 T00500044
PAOH 111548Z AUTO 34005KT 10SM -RA FEW023 BKN033 OVC042 05/04 A2995 RMK AO2 P0003
PAOH 111529Z AUTO 32004KT 10SM -RA BKN023 BKN031 OVC042 05/04 A2994 RMK AO2 P0002
PAOH 111456Z AUTO VRB03KT 10SM -RA OVC042 06/04 A2991 RMK AO2 SLP129 P0004 60023 T00560044 51021
PAOH 111356Z AUTO 30007KT 10SM -RA BKN042 06/06 A2990 RMK AO2 SLP125 P0006 T00610056
PAOH 111331Z AUTO VRB03KT 9SM -RA FEW016 BKN036 OVC044 07/06 A2990 RMK AO2 P0005
PAOH 111313Z AUTO 30008KT 9SM RA FEW016 BKN027 OVC037 07/06 A2990 RMK AO2 P0003
PAOH 111256Z AUTO 29005KT 10SM RA FEW018 BKN030 OVC039 08/07 A2988 RMK AO2 SLP120 P0013 T00780067
PAOH 111156Z AUTO 27004KT 10SM RA FEW026 BKN033 OVC045 07/07 A2985 RMK AO2 SLP108 P0009 60041 70096 T00720072 10089 20061 53006
PAOH 111056Z AUTO 07003KT 9SM RA SCT027 BKN035 OVC050 08/08 A2984 RMK AO2 SLP105 P0011 T00830078
PAOH 111048Z AUTO 09005KT 10SM RA SCT027 BKN034 OVC055 08/07 A2985 RMK AO2 P0009
PAOH 111040Z AUTO 09006KT 10SM RA BKN027 OVC036 09/08 A2985 RMK AO2 P0007
PAOH 110956Z AUTO 10007KT 10SM RA SCT025 OVC033 09/08 A2983 RMK AO2 SLP103 P0007 T00890078
PAOH 110954Z AUTO 08007KT 10SM RA FEW025 BKN030 OVC036 09/08 A2983 RMK AO2 P0007
PAOH 110856Z AUTO 08010KT 4SM -RA BR OVC025 08/07 A2984 RMK AO2 SLP104 P0003 60014 T00780067 56001
PAOH 110756Z AUTO 10012KT 10SM -RA BKN026 BKN032 OVC070 07/06 A2984 RMK AO2 SLP105 P0005 T00670061 400720022
PAOH 110717Z AUTO 09013KT 9SM RA FEW008 BKN024 OVC030 07/06 A2983 RMK AO2 P0003
PAOH 110656Z AUTO 11010KT 10SM -RA FEW010 SCT016 OVC024 06/06 A2984 RMK AO2 SLP104 P0006 T00610056
PAOH 110613Z AUTO 09012KT 6SM RA BR FEW008 BKN015 OVC023 06/05 A2984 RMK AO2 P0001
PAOH 110556Z AUTO 09012KT 5SM -RA BR FEW008 BKN012 OVC025 06/05 A2984 RMK AO2 SLP105 P0005 60049 T00610050 10061 20056 56021
PAOH 110540Z AUTO 09011G17KT 5SM -RA BR FEW007 BKN018 OVC027 06/05 A2984 RMK AO2 P0004
PAOH 110456Z AUTO 08014G18KT 5SM RA BR FEW009 OVC017 06/05 A2984 RMK AO2 SLP107 P0008 T00610050
PAOH 110440Z AUTO 08013G18KT 7SM -RA FEW009 OVC019 06/05 A2985 RMK AO2 P0005
PAOH 110356Z AUTO 09013G17KT 10SM RA SCT015 BKN021 OVC030 06/05 A2986 RMK AO2 SLP113 P0010 T00610050
PAOH 110256Z AUTO 09010KT 9SM RA FEW008 BKN017 OVC025 06/05 A2990 RMK AO2 SLP126 P0008 60026 T00610050 58027
PAOH 110246Z AUTO 08010KT 8SM -RA SCT010 BKN015 OVC025 06/05 A2990 RMK AO2 P0007
PAOH 110156Z AUTO 08012G18KT 7SM RA BKN012 OVC029 06/05 A2993 RMK AO2 SLP137 P0008 T00610050
PAOH 110137Z AUTO 08009KT 9SM RA BKN014 OVC031 06/05 A2994 RMK AO2 PRESFR P0007
PAOH 110056Z AUTO 09007KT 10SM RA FEW012 SCT026 OVC033 06/05 A2998 RMK AO2 SLP152 P0010 T00560050
PAOH 110053Z AUTO 09008KT 10SM RA FEW012 SCT026 OVC035 06/05 A2998 RMK AO2 PRESFR P0009
PAOH 110040Z AUTO 10006KT 10SM RA SCT014 BKN026 OVC035 06/05 A3000 RMK AO2 P0007
PAOH 102356Z AUTO 10006KT 10SM -RA BKN037 OVC047 06/05 A3003 RMK AO2 RAB2258 SLP169 P0005 60005 T00610050 10072 20061 58047
PAOH 102256Z AUTO 09010G14KT 10SM OVC039 07/04 A3009 RMK AO2 PRESFR SLP190 T00670044